createdAt,value
2019-05-12T00:01:38.805Z,2.60
2019-05-12T00:04:08.228Z,2.50
2019-05-12T00:06:38.759Z,2.40
2019-05-12T00:09:08.361Z,2.30
2019-05-12T00:11:37.939Z,2.40
2019-05-12T00:14:08.569Z,2.30
2019-05-12T00:16:38.415Z,2.40
2019-05-12T00:19:09.182Z,2.40
2019-05-12T00:21:39.700Z,2.30
2019-05-12T00:24:13.395Z,2.20
2019-05-12T00:26:42.350Z,2.20
2019-05-12T00:29:10.978Z,2.20
2019-05-12T00:31:39.375Z,2.10
2019-05-12T00:34:07.906Z,2.20
2019-05-12T00:36:37.977Z,2.10
2019-05-12T00:39:08.625Z,2.10
2019-05-12T00:41:38.886Z,2.00
2019-05-12T00:44:08.851Z,2.00
2019-05-12T00:46:38.510Z,2.10
2019-05-12T00:49:07.985Z,2.00
2019-05-12T00:51:38.408Z,2.00
2019-05-12T00:54:09.151Z,1.90
2019-05-12T00:56:39.132Z,1.90
2019-05-12T00:59:08.298Z,2.00
2019-05-12T01:01:38.034Z,2.00
2019-05-12T01:04:08.772Z,1.80
2019-05-12T01:06:38.672Z,1.80
2019-05-12T01:09:08.756Z,1.90
2019-05-12T01:11:37.955Z,1.80
2019-05-12T01:14:08.509Z,1.70
2019-05-12T01:16:38.551Z,1.60
2019-05-12T01:19:07.980Z,1.70
2019-05-12T01:21:37.661Z,1.60
2019-05-12T01:24:08.729Z,1.50
2019-05-12T01:26:38.567Z,1.40
2019-05-12T01:29:08.454Z,1.40
2019-05-12T01:31:38.511Z,1.40
2019-05-12T01:34:08.118Z,1.30
2019-05-12T01:36:38.119Z,1.30
2019-05-12T01:39:08.503Z,1.30
2019-05-12T01:41:38.950Z,1.30
2019-05-12T01:44:08.879Z,1.20
2019-05-12T01:46:38.298Z,1.30
2019-05-12T01:49:08.225Z,1.30
2019-05-12T01:51:38.533Z,1.20
2019-05-12T01:54:14.447Z,1.20
2019-05-12T01:56:38.306Z,1.10
2019-05-12T01:59:08.119Z,1.10
2019-05-12T02:01:38.885Z,1.00
2019-05-12T02:04:07.765Z,1.00
2019-05-12T02:06:38.538Z,1.00
2019-05-12T02:09:08.182Z,1.00
2019-05-12T02:11:38.027Z,0.90
2019-05-12T02:14:09.042Z,1.00
2019-05-12T02:16:38.704Z,1.00
2019-05-12T02:19:08.973Z,1.00
2019-05-12T02:21:38.184Z,1.00
2019-05-12T02:24:07.856Z,1.00
2019-05-12T02:26:38.296Z,1.00
2019-05-12T02:29:07.874Z,0.90
2019-05-12T02:31:39.831Z,0.80
2019-05-12T02:34:06.934Z,0.80
2019-05-12T02:36:35.322Z,0.90
2019-05-12T02:39:06.136Z,0.80
2019-05-12T02:41:34.770Z,0.80
2019-05-12T02:44:05.206Z,0.70
2019-05-12T02:46:34.783Z,0.80
2019-05-12T02:49:04.882Z,0.70
2019-05-12T02:51:35.345Z,0.70
2019-05-12T02:54:05.726Z,0.80
2019-05-12T02:56:35.756Z,0.70
2019-05-12T02:59:05.408Z,0.70
2019-05-12T03:01:35.488Z,0.80
2019-05-12T03:04:05.701Z,0.70
2019-05-12T03:06:36.411Z,0.60
2019-05-12T03:09:07.274Z,0.60
2019-05-12T03:11:37.135Z,0.90
2019-05-12T03:14:05.875Z,0.80
2019-05-12T03:16:35.173Z,0.70
2019-05-12T03:19:04.932Z,0.80
2019-05-12T03:21:35.167Z,0.70
2019-05-12T03:24:06.068Z,0.70
2019-05-12T03:26:34.897Z,0.60
2019-05-12T03:29:05.774Z,0.60
2019-05-12T03:31:38.848Z,0.70
2019-05-12T03:34:09.712Z,0.70
2019-05-12T03:36:41.263Z,0.70
2019-05-12T03:39:07.055Z,0.70
2019-05-12T03:41:35.494Z,0.70
2019-05-12T03:44:05.115Z,0.70
2019-05-12T03:46:35.258Z,0.60
2019-05-12T03:49:05.233Z,0.50
2019-05-12T03:51:34.982Z,0.70
2019-05-12T03:54:05.074Z,0.60
2019-05-12T03:56:34.597Z,0.70
2019-05-12T03:59:05.063Z,0.70
2019-05-12T04:01:36.309Z,0.90
2019-05-12T04:04:05.428Z,1.10
2019-05-12T04:06:34.726Z,1.00
2019-05-12T04:09:06.130Z,0.90
2019-05-12T04:11:35.622Z,0.90
2019-05-12T04:14:05.670Z,1.00
2019-05-12T04:16:36.218Z,1.30
2019-05-12T04:19:05.644Z,1.40
2019-05-12T04:21:35.313Z,1.50
2019-05-12T04:24:05.475Z,1.60
2019-05-12T04:26:36.513Z,1.70
2019-05-12T04:29:05.294Z,1.80
2019-05-12T04:31:35.944Z,1.80
2019-05-12T04:34:05.403Z,2.00
2019-05-12T04:36:35.500Z,2.20
2019-05-12T04:39:05.816Z,2.30
2019-05-12T04:41:35.446Z,2.40
2019-05-12T04:44:05.829Z,2.50
2019-05-12T04:46:34.792Z,2.60
2019-05-12T04:49:05.306Z,2.70
2019-05-12T04:51:34.992Z,2.80
2019-05-12T04:54:05.677Z,2.80
2019-05-12T04:56:35.802Z,3.10
2019-05-12T04:59:05.196Z,3.20
2019-05-12T05:01:34.798Z,3.20
2019-05-12T05:04:05.517Z,3.20
2019-05-12T05:06:34.381Z,3.30
2019-05-12T05:09:05.177Z,3.50
2019-05-12T05:11:34.570Z,3.70
2019-05-12T05:14:04.218Z,4.00
2019-05-12T05:16:34.634Z,4.10
2019-05-12T05:19:03.735Z,4.20
2019-05-12T05:21:34.499Z,4.30
2019-05-12T05:24:03.826Z,4.40
2019-05-12T05:26:37.023Z,4.60
2019-05-12T05:29:04.315Z,4.60
2019-05-12T05:31:33.651Z,4.70
2019-05-12T05:34:04.727Z,4.80
2019-05-12T05:36:34.578Z,4.90
2019-05-12T05:39:05.913Z,5.00
2019-05-12T05:41:34.606Z,5.00
2019-05-12T05:44:03.282Z,5.10
2019-05-12T05:46:33.677Z,5.10
2019-05-12T05:49:04.067Z,5.20
2019-05-12T05:51:33.509Z,5.40
2019-05-12T05:54:03.989Z,5.40
2019-05-12T05:56:42.339Z,5.40
2019-05-12T05:59:04.665Z,5.50
2019-05-12T06:01:34.672Z,5.70
2019-05-12T06:04:04.493Z,5.80
2019-05-12T06:06:34.174Z,5.80
2019-05-12T06:09:04.769Z,5.90
2019-05-12T06:11:34.550Z,5.90
2019-05-12T06:14:11.102Z,6.00
2019-05-12T06:16:34.072Z,6.10
2019-05-12T06:19:03.499Z,6.20
2019-05-12T06:21:36.837Z,6.30
2019-05-12T06:24:03.480Z,6.30
2019-05-12T06:26:35.378Z,6.30
2019-05-12T06:29:04.412Z,6.50
2019-05-12T06:31:33.442Z,6.60
2019-05-12T06:34:15.308Z,6.50
2019-05-12T06:36:39.564Z,6.50
2019-05-12T06:39:10.468Z,6.50
2019-05-12T06:41:39.550Z,6.50
2019-05-12T06:44:08.832Z,6.50
2019-05-12T06:46:38.310Z,6.70
2019-05-12T06:49:12.625Z,6.60
2019-05-12T06:51:37.068Z,6.80
2019-05-12T06:54:11.797Z,7.00
2019-05-12T06:56:38.045Z,7.10
2019-05-12T06:59:10.332Z,7.20
2019-05-12T07:01:36.779Z,7.20
2019-05-12T07:04:10.221Z,7.30
2019-05-12T07:06:38.784Z,7.50
2019-05-12T07:09:09.724Z,7.70
2019-05-12T07:11:45.067Z,7.80
2019-05-12T07:14:18.887Z,8.00
2019-05-12T07:16:39.543Z,8.20
2019-05-12T07:19:17.438Z,8.20
2019-05-12T07:21:40.237Z,8.10
2019-05-12T07:24:11.109Z,7.90
2019-05-12T07:26:39.225Z,7.90
2019-05-12T07:29:07.622Z,8.10
2019-05-12T07:31:37.249Z,8.10
2019-05-12T07:34:07.809Z,8.20
2019-05-12T07:36:36.974Z,8.30
2019-05-12T07:39:08.560Z,8.20
2019-05-12T07:41:42.403Z,8.50
2019-05-12T07:44:10.295Z,8.40
2019-05-12T07:46:39.731Z,8.30
2019-05-12T07:49:09.081Z,8.30
2019-05-12T07:51:40.472Z,8.50
2019-05-12T07:54:07.790Z,8.60
2019-05-12T07:56:44.342Z,8.70
2019-05-12T07:59:16.120Z,8.90
2019-05-12T08:01:54.970Z,8.90
2019-05-12T08:04:24.011Z,9.00
2019-05-12T08:06:53.817Z,9.40
2019-05-12T08:09:24.124Z,9.60
2019-05-12T08:11:54.027Z,9.50
2019-05-12T08:14:28.554Z,10.20
2019-05-12T08:16:54.321Z,10.10
2019-05-12T08:19:25.707Z,10.20
2019-05-12T08:21:53.807Z,10.10
2019-05-12T08:24:23.718Z,10.30
2019-05-12T08:26:59.620Z,10.60
2019-05-12T08:29:24.225Z,10.70
2019-05-12T08:31:54.843Z,11.50
2019-05-12T08:34:23.787Z,12.70
2019-05-12T08:36:56.899Z,12.70
2019-05-12T08:39:27.367Z,12.60
2019-05-12T08:41:55.761Z,11.80
2019-05-12T08:44:33.303Z,11.60
2019-05-12T08:46:56.668Z,11.40
2019-05-12T08:49:24.490Z,10.70
2019-05-12T08:51:55.813Z,11.20
2019-05-12T08:54:24.786Z,12.90
2019-05-12T08:56:59.221Z,14.80
2019-05-12T08:59:26.859Z,14.50
2019-05-12T09:01:55.403Z,15.40
2019-05-12T09:04:25.582Z,15.30
2019-05-12T09:06:56.366Z,15.80
2019-05-12T09:09:24.282Z,15.10
2019-05-12T09:11:54.216Z,16.20
2019-05-12T09:14:23.885Z,17.30
2019-05-12T09:16:55.947Z,16.80
2019-05-12T09:19:27.115Z,15.00
2019-05-12T09:21:54.312Z,13.80
2019-05-12T09:24:26.870Z,13.30
2019-05-12T09:26:53.851Z,12.90
2019-05-12T09:29:22.419Z,12.70
2019-05-12T09:31:53.187Z,12.70
2019-05-12T09:34:23.490Z,13.60
2019-05-12T09:36:59.477Z,13.80
2019-05-12T09:39:23.452Z,15.10
2019-05-12T09:41:54.804Z,17.90
2019-05-12T09:44:26.456Z,17.10
2019-05-12T09:46:53.523Z,16.60
2019-05-12T09:49:30.816Z,16.60
2019-05-12T09:51:54.412Z,17.30
2019-05-12T09:54:26.196Z,16.90
2019-05-12T09:56:55.437Z,15.10
2019-05-12T09:59:25.768Z,15.30
2019-05-12T10:01:54.150Z,14.20
2019-05-12T10:04:22.982Z,14.10
2019-05-12T10:06:53.364Z,14.10
2019-05-12T10:09:21.667Z,14.10
2019-05-12T10:12:00.379Z,15.20
2019-05-12T10:14:23.567Z,14.60
2019-05-12T10:16:52.676Z,16.10
2019-05-12T10:19:23.520Z,17.10
2019-05-12T10:21:59.328Z,17.40
2019-05-12T10:27:21.105Z,18.20
2019-05-12T10:29:54.275Z,17.00
2019-05-12T10:32:24.030Z,15.70
2019-05-12T10:34:53.795Z,14.40
2019-05-12T10:37:25.238Z,14.10
2019-05-12T10:39:56.763Z,14.10
2019-05-12T10:42:27.015Z,15.00
2019-05-12T10:44:56.773Z,16.10
2019-05-12T10:47:39.006Z,17.50
2019-05-12T10:50:07.770Z,16.90
2019-05-12T10:52:39.052Z,15.90
2019-05-12T10:55:09.587Z,14.60
2019-05-12T10:57:38.002Z,14.20
2019-05-12T11:00:09.181Z,13.90
2019-05-12T11:02:39.875Z,16.00
2019-05-12T11:05:12.563Z,16.20
2019-05-12T11:07:44.153Z,16.80
2019-05-12T11:10:20.044Z,16.50
2019-05-12T11:12:48.410Z,15.70
2019-05-12T11:15:17.448Z,14.60
2019-05-12T11:17:57.015Z,14.90
2019-05-12T11:20:30.200Z,15.40
2019-05-12T11:23:03.287Z,17.00
2019-05-12T11:25:33.984Z,16.80
2019-05-12T11:28:04.256Z,16.60
2019-05-12T11:30:34.659Z,16.20
2019-05-12T11:33:06.502Z,15.10
2019-05-12T11:35:35.375Z,15.30
2019-05-12T11:38:05.816Z,16.00
2019-05-12T11:40:38.774Z,15.20
2019-05-12T11:43:14.314Z,16.20
2019-05-12T11:45:47.625Z,16.90
2019-05-12T11:48:16.240Z,17.40
2019-05-12T11:50:49.669Z,18.20
2019-05-12T11:53:15.290Z,18.10
2019-05-12T11:55:43.975Z,18.40
2019-05-12T11:58:15.644Z,16.50
2019-05-12T12:00:46.152Z,17.50
2019-05-12T12:03:20.258Z,17.80
2019-05-12T12:05:54.659Z,18.30
2019-05-12T12:08:33.749Z,17.90
2019-05-12T12:11:01.100Z,17.50
2019-05-12T12:13:31.178Z,15.80
2019-05-12T12:16:00.696Z,16.20
2019-05-12T12:18:33.790Z,17.20
2019-05-12T12:21:18.988Z,17.40
2019-05-12T12:23:50.738Z,18.30
2019-05-12T12:26:30.060Z,18.70
2019-05-12T12:28:56.311Z,19.10
2019-05-12T12:31:29.636Z,18.50
2019-05-12T12:33:55.141Z,18.10
2019-05-12T12:36:23.754Z,17.70
2019-05-12T12:38:53.579Z,17.50
2019-05-12T12:41:23.736Z,18.00
2019-05-12T12:43:54.013Z,18.30
2019-05-12T12:46:24.442Z,16.70
2019-05-12T12:48:54.221Z,15.50
2019-05-12T12:51:23.614Z,15.20
2019-05-12T12:53:54.217Z,15.30
2019-05-12T12:56:29.766Z,15.80
2019-05-12T12:58:55.615Z,16.00
2019-05-12T13:01:28.655Z,16.80
2019-05-12T13:03:53.728Z,17.30
2019-05-12T13:06:23.853Z,17.70
2019-05-12T13:08:54.141Z,16.50
2019-05-12T13:11:33.255Z,16.40
2019-05-12T13:13:54.527Z,16.70
2019-05-12T13:19:26.960Z,17.40
2019-05-12T13:21:57.491Z,17.40
2019-05-12T13:24:25.891Z,16.50
2019-05-12T13:26:54.316Z,16.10
2019-05-12T13:29:26.391Z,16.10
2019-05-12T13:31:53.837Z,16.20
2019-05-12T13:34:23.696Z,16.10
2019-05-12T13:36:54.432Z,15.30
2019-05-12T13:39:24.233Z,15.40
2019-05-12T13:42:00.462Z,15.70
2019-05-12T13:44:30.262Z,15.60
2019-05-12T13:46:59.360Z,15.50
2019-05-12T13:49:30.149Z,16.20
2019-05-12T13:51:58.041Z,15.30
2019-05-12T13:54:29.936Z,14.80
2019-05-12T13:57:03.746Z,14.80
2019-05-12T13:59:28.767Z,15.10
2019-05-12T14:01:57.334Z,15.30
2019-05-12T14:04:27.851Z,15.20
2019-05-12T14:06:57.582Z,14.80
2019-05-12T14:09:26.033Z,14.40
2019-05-12T14:11:54.439Z,14.10
2019-05-12T14:14:23.790Z,14.40
2019-05-12T14:16:59.143Z,14.80
2019-05-12T14:19:23.437Z,15.50
2019-05-12T14:21:54.140Z,15.80
2019-05-12T14:24:23.298Z,15.70
2019-05-12T14:26:53.747Z,15.80
2019-05-12T14:29:26.637Z,15.00
2019-05-12T14:31:56.658Z,14.60
2019-05-12T14:34:23.632Z,14.50
2019-05-12T14:37:04.958Z,14.00
2019-05-12T14:39:23.970Z,14.30
2019-05-12T14:41:54.528Z,14.80
2019-05-12T14:44:23.771Z,15.00
2019-05-12T14:46:53.779Z,15.30
2019-05-12T14:49:26.480Z,15.40
2019-05-12T14:51:53.717Z,15.30
2019-05-12T14:54:23.909Z,14.60
2019-05-12T14:56:57.547Z,14.30
2019-05-12T14:59:24.306Z,13.90
2019-05-12T15:01:58.981Z,13.70
2019-05-12T15:04:27.970Z,13.50
2019-05-12T15:06:53.479Z,13.30
2019-05-12T15:09:24.548Z,13.20
2019-05-12T15:11:52.819Z,13.40
2019-05-12T15:14:26.729Z,13.60
2019-05-12T15:16:54.214Z,14.30
2019-05-12T15:19:27.841Z,14.80
2019-05-12T15:21:53.701Z,14.80
2019-05-12T15:24:24.445Z,14.70
2019-05-12T15:26:59.032Z,14.50
2019-05-12T15:29:23.557Z,13.90
2019-05-12T15:31:56.323Z,13.60
2019-05-12T15:34:23.697Z,13.40
2019-05-12T15:36:56.195Z,13.00
2019-05-12T15:39:23.083Z,12.90
2019-05-12T15:41:56.514Z,12.90
2019-05-12T15:44:23.128Z,12.90
2019-05-12T15:46:53.562Z,12.70
2019-05-12T15:49:25.936Z,12.80
2019-05-12T15:51:56.848Z,13.00
2019-05-12T15:54:47.222Z,13.30
2019-05-12T15:57:14.181Z,13.70
2019-05-12T15:59:43.478Z,13.70
2019-05-12T16:02:16.649Z,13.30
2019-05-12T16:04:48.377Z,13.00
2019-05-12T16:07:17.183Z,12.90
2019-05-12T16:09:47.305Z,12.90
2019-05-12T16:12:23.340Z,12.90
2019-05-12T16:14:45.927Z,12.90
2019-05-12T16:17:18.980Z,12.90
2019-05-12T16:19:49.195Z,13.00
2019-05-12T16:22:17.743Z,13.30
2019-05-12T16:24:48.925Z,13.40
2019-05-12T16:27:16.355Z,13.40
2019-05-12T16:29:49.808Z,13.10
2019-05-12T16:32:26.543Z,12.80
2019-05-12T16:34:48.792Z,12.80
2019-05-12T16:37:15.577Z,12.80
2019-05-12T16:39:47.518Z,13.00
2019-05-12T16:42:16.580Z,13.20
2019-05-12T16:44:45.166Z,13.10
2019-05-12T16:47:18.786Z,13.00
2019-05-12T16:49:44.725Z,12.80
2019-05-12T16:52:13.844Z,12.60
2019-05-12T16:54:43.931Z,12.60
2019-05-12T16:57:17.737Z,12.30
2019-05-12T16:59:42.771Z,12.20
2019-05-12T17:02:13.622Z,12.20
2019-05-12T17:04:44.175Z,12.20
2019-05-12T17:07:17.051Z,12.30
2019-05-12T17:09:43.880Z,12.30
2019-05-12T17:12:14.483Z,12.30
2019-05-12T17:14:49.879Z,12.40
2019-05-12T17:17:15.742Z,12.40
2019-05-12T17:19:44.285Z,12.40
2019-05-12T17:22:17.334Z,12.40
2019-05-12T17:24:44.790Z,12.60
2019-05-12T17:27:15.744Z,12.60
2019-05-12T17:29:43.623Z,12.70
2019-05-12T17:32:13.460Z,12.80
2019-05-12T17:34:45.705Z,12.80
2019-05-12T17:37:19.642Z,12.90
2019-05-12T17:39:50.127Z,13.00
2019-05-12T17:42:21.594Z,12.80
2019-05-12T17:44:54.466Z,12.70
2019-05-12T17:47:25.889Z,12.50
2019-05-12T17:49:53.957Z,12.40
2019-05-12T17:52:23.449Z,12.20
2019-05-12T17:54:57.834Z,12.10
2019-05-12T17:57:23.454Z,12.10
2019-05-12T17:59:59.658Z,12.10
2019-05-12T18:02:36.655Z,11.90
2019-05-12T18:05:14.788Z,11.90
2019-05-12T18:07:52.478Z,11.90
2019-05-12T18:10:32.477Z,11.90
2019-05-12T18:13:05.020Z,11.90
2019-05-12T18:15:37.947Z,11.90
2019-05-12T18:18:04.227Z,11.90
2019-05-12T18:20:39.532Z,11.80
2019-05-12T18:23:04.344Z,11.80
2019-05-12T18:25:36.837Z,11.70
2019-05-12T18:28:07.691Z,11.70
2019-05-12T18:30:36.379Z,11.70
2019-05-12T18:33:09.679Z,11.60
2019-05-12T18:35:38.252Z,11.60
2019-05-12T18:38:18.335Z,11.50
2019-05-12T18:40:42.540Z,11.40
2019-05-12T18:43:14.191Z,11.30
2019-05-12T18:45:48.843Z,11.10
2019-05-12T18:48:22.001Z,10.90
2019-05-12T18:50:45.047Z,10.60
2019-05-12T18:53:14.848Z,10.50
2019-05-12T18:55:44.211Z,10.20
2019-05-12T18:58:14.888Z,10.10
2019-05-12T19:00:43.660Z,9.90
2019-05-12T19:03:14.007Z,9.70
2019-05-12T19:05:43.701Z,9.50
2019-05-12T19:08:14.091Z,9.30
2019-05-12T19:10:48.726Z,9.20
2019-05-12T19:16:11.174Z,8.70
2019-05-12T19:18:42.211Z,8.60
2019-05-12T19:21:16.612Z,8.40
2019-05-12T19:23:54.349Z,8.30
2019-05-12T19:27:20.627Z,8.00
2019-05-12T19:29:29.792Z,7.80
2019-05-12T19:31:58.097Z,7.70
2019-05-12T19:37:28.028Z,7.30
2019-05-12T19:39:53.873Z,7.20
2019-05-12T19:42:26.960Z,7.10
2019-05-12T19:44:59.294Z,7.10
2019-05-12T19:47:33.510Z,7.10
2019-05-12T19:49:59.569Z,6.90
2019-05-12T19:52:28.143Z,6.80
2019-05-12T19:54:58.252Z,6.70
2019-05-12T19:57:26.738Z,6.70
2019-05-12T19:59:55.929Z,6.70
2019-05-12T20:02:24.678Z,6.70
2019-05-12T20:04:56.417Z,6.80
2019-05-12T20:07:23.453Z,6.80
2019-05-12T20:09:55.953Z,6.90
2019-05-12T20:12:24.144Z,6.90
2019-05-12T20:14:56.898Z,7.00
2019-05-12T20:17:24.331Z,7.10
2019-05-12T20:19:53.959Z,7.10
2019-05-12T20:22:25.034Z,7.10
2019-05-12T20:24:53.768Z,7.20
2019-05-12T20:27:24.609Z,7.30
2019-05-12T20:29:56.753Z,7.40
2019-05-12T20:32:25.518Z,7.40
2019-05-12T20:34:55.325Z,7.50
2019-05-12T20:37:24.237Z,7.50
2019-05-12T20:40:00.102Z,7.40
2019-05-12T20:42:26.617Z,7.30
2019-05-12T20:44:57.929Z,7.10
2019-05-12T20:47:25.354Z,6.90
2019-05-12T20:49:53.947Z,6.80
2019-05-12T20:52:23.749Z,6.50
2019-05-12T20:54:57.796Z,6.40
2019-05-12T20:57:23.627Z,6.30
2019-05-12T20:59:52.383Z,6.10
2019-05-12T21:02:23.440Z,6.00
2019-05-12T21:05:00.443Z,5.90
2019-05-12T21:07:26.522Z,5.80
2019-05-12T21:09:55.711Z,5.60
2019-05-12T21:12:40.211Z,5.50
2019-05-12T21:15:20.165Z,5.50
2019-05-12T21:17:46.887Z,5.40
2019-05-12T21:20:33.724Z,5.30
2019-05-12T21:23:01.803Z,5.20
2019-05-12T21:25:33.923Z,5.20
2019-05-12T21:28:08.962Z,5.10
2019-05-12T21:30:42.457Z,5.10
2019-05-12T21:36:29.569Z,4.90
2019-05-12T21:39:10.485Z,4.70
2019-05-12T21:41:47.415Z,4.70
2019-05-12T21:44:25.306Z,4.60
2019-05-12T21:47:03.862Z,4.50
2019-05-12T21:49:33.126Z,4.40
2019-05-12T21:52:04.201Z,4.30
2019-05-12T21:54:36.192Z,4.30
2019-05-12T21:57:03.719Z,4.40
2019-05-12T21:59:39.289Z,4.30
2019-05-12T22:04:50.526Z,4.20
2019-05-12T22:07:19.517Z,4.10
2019-05-12T22:10:00.055Z,4.00
2019-05-12T22:12:30.350Z,4.00
2019-05-12T22:14:58.778Z,4.00
2019-05-12T22:17:33.488Z,3.90
2019-05-12T22:20:06.178Z,3.80
2019-05-12T22:22:42.995Z,3.80
2019-05-12T22:25:17.568Z,3.80
2019-05-12T22:27:46.366Z,3.70
2019-05-12T22:30:17.202Z,3.70
2019-05-12T22:32:45.269Z,3.70
2019-05-12T22:35:21.529Z,3.70
2019-05-12T22:37:45.041Z,3.60
2019-05-12T22:40:17.590Z,3.60
2019-05-12T22:42:50.654Z,3.50
2019-05-12T22:45:16.563Z,3.50
2019-05-12T22:47:49.185Z,3.40
2019-05-12T22:59:54.617Z,3.20
2019-05-12T23:02:28.014Z,3.20
2019-05-12T23:04:55.081Z,3.10
2019-05-12T23:07:25.400Z,3.00
2019-05-12T23:09:54.049Z,3.00
2019-05-12T23:12:23.674Z,2.90
2019-05-12T23:14:54.177Z,2.90
2019-05-12T23:17:24.727Z,2.90
2019-05-12T23:19:55.640Z,2.80
2019-05-12T23:22:23.735Z,2.80
2019-05-12T23:24:54.576Z,2.80
2019-05-12T23:27:25.216Z,2.80
2019-05-12T23:29:53.336Z,2.80
2019-05-12T23:32:24.061Z,2.80
2019-05-12T23:34:58.245Z,3.00
2019-05-12T23:37:24.404Z,3.10
2019-05-12T23:39:53.763Z,3.10
2019-05-12T23:42:23.696Z,2.90
2019-05-12T23:44:52.211Z,2.90
2019-05-12T23:47:20.715Z,2.80
2019-05-12T23:49:49.089Z,2.80
2019-05-12T23:52:17.499Z,2.70
2019-05-12T23:54:45.897Z,2.70
2019-05-12T23:57:15.725Z,2.50
2019-05-12T23:59:44.245Z,2.50
